createdAt,value
2023-03-10T00:00:56.257Z,10.20
2023-03-10T00:03:24.321Z,10.20
2023-03-10T00:05:52.437Z,10.30
2023-03-10T00:08:20.481Z,10.20
2023-03-10T00:10:48.522Z,10.20
2023-03-10T00:13:16.549Z,10.30
2023-03-10T00:15:44.638Z,10.30
2023-03-10T00:18:13.995Z,10.20
2023-03-10T00:20:42.020Z,10.20
2023-03-10T00:23:10.058Z,10.20
2023-03-10T00:25:38.205Z,10.20
2023-03-10T00:28:06.321Z,10.30
2023-03-10T00:30:35.208Z,10.30
2023-03-10T00:33:03.296Z,10.30
2023-03-10T00:35:32.879Z,10.30
2023-03-10T00:38:02.485Z,10.30
2023-03-10T00:40:30.498Z,10.30
2023-03-10T00:42:59.438Z,10.30
2023-03-10T00:45:27.464Z,10.30
2023-03-10T00:47:55.460Z,10.30
2023-03-10T00:50:23.495Z,10.30
2023-03-10T00:52:52.949Z,10.30
2023-03-10T00:55:21.060Z,10.30
2023-03-10T00:57:49.131Z,10.30
2023-03-10T01:00:18.146Z,10.30
2023-03-10T01:02:46.294Z,10.30
2023-03-10T01:05:15.994Z,10.30
2023-03-10T01:07:44.007Z,10.30
2023-03-10T01:10:14.666Z,10.30
2023-03-10T01:12:42.860Z,10.30
2023-03-10T01:15:13.922Z,10.30
2023-03-10T01:17:42.486Z,10.30
2023-03-10T01:20:15.088Z,10.30
2023-03-10T01:22:43.444Z,10.30
2023-03-10T01:25:15.439Z,10.30
2023-03-10T01:27:44.121Z,10.30
2023-03-10T01:30:13.388Z,10.30
2023-03-10T01:32:41.740Z,10.30
2023-03-10T01:35:10.592Z,10.30
2023-03-10T01:37:38.737Z,10.30
2023-03-10T01:40:09.311Z,10.30
2023-03-10T01:42:38.670Z,10.30
2023-03-10T01:45:10.755Z,10.30
2023-03-10T01:47:45.671Z,10.30
2023-03-10T01:50:19.803Z,10.30
2023-03-10T01:52:56.476Z,10.30
2023-03-10T01:55:28.267Z,10.30
2023-03-10T01:57:58.603Z,10.30
2023-03-10T02:00:29.463Z,10.30
2023-03-10T02:03:07.737Z,10.30
2023-03-10T02:05:38.677Z,10.30
2023-03-10T02:08:09.282Z,10.30
2023-03-10T02:10:37.959Z,10.30
2023-03-10T02:13:07.636Z,10.30
2023-03-10T02:15:35.894Z,10.20
2023-03-10T02:18:05.789Z,10.30
2023-03-10T02:20:41.134Z,10.20
2023-03-10T02:23:11.186Z,10.20
2023-03-10T02:25:44.926Z,10.20
2023-03-10T02:28:15.835Z,10.20
2023-03-10T02:30:47.562Z,10.20
2023-03-10T02:33:19.658Z,10.20
2023-03-10T02:35:48.142Z,10.10
2023-03-10T02:38:21.408Z,10.20
2023-03-10T02:40:50.931Z,10.20
2023-03-10T02:43:26.910Z,10.20
2023-03-10T02:46:03.729Z,10.20
2023-03-10T02:48:34.902Z,10.20
2023-03-10T02:51:09.225Z,10.20
2023-03-10T02:53:37.477Z,10.20
2023-03-10T02:56:06.322Z,10.20
2023-03-10T02:58:38.629Z,10.20
2023-03-10T03:01:09.252Z,10.20
2023-03-10T03:03:41.001Z,10.30
2023-03-10T03:06:09.844Z,10.20
2023-03-10T03:08:38.048Z,10.20
2023-03-10T03:11:08.999Z,10.20
2023-03-10T03:13:38.971Z,10.30
2023-03-10T03:16:09.280Z,10.20
2023-03-10T03:18:38.791Z,10.30
2023-03-10T03:21:10.475Z,10.30
2023-03-10T03:23:39.667Z,10.20
2023-03-10T03:26:15.606Z,10.20
2023-03-10T03:28:46.290Z,10.20
2023-03-10T03:31:17.310Z,10.20
2023-03-10T03:33:46.130Z,10.20
2023-03-10T03:36:15.026Z,10.20
2023-03-10T03:38:43.105Z,10.20
2023-03-10T03:41:11.225Z,10.20
2023-03-10T03:43:40.159Z,10.10
2023-03-10T03:46:09.806Z,10.20
2023-03-10T03:48:38.234Z,10.20
2023-03-10T03:51:09.253Z,10.20
2023-03-10T03:53:41.601Z,10.20
2023-03-10T03:56:09.673Z,10.20
2023-03-10T03:58:39.229Z,10.20
2023-03-10T04:01:09.837Z,10.20
2023-03-10T04:03:43.737Z,10.20
2023-03-10T04:06:14.640Z,10.20
2023-03-10T04:08:43.291Z,10.20
2023-03-10T04:11:11.451Z,10.20
2023-03-10T04:13:44.404Z,10.20
2023-03-10T04:16:15.136Z,10.20
2023-03-10T04:18:44.820Z,10.20
2023-03-10T04:21:15.284Z,10.10
2023-03-10T04:23:43.827Z,10.20
2023-03-10T04:26:15.414Z,10.10
2023-03-10T04:28:43.514Z,10.10
2023-03-10T04:31:17.755Z,10.10
2023-03-10T04:33:48.125Z,10.10
2023-03-10T04:36:18.525Z,10.10
2023-03-10T04:38:48.975Z,10.10
2023-03-10T04:41:17.525Z,10.10
2023-03-10T04:43:48.072Z,10.10
2023-03-10T04:46:19.609Z,10.10
2023-03-10T04:48:47.919Z,10.10
2023-03-10T04:51:16.823Z,10.10
2023-03-10T04:53:49.532Z,10.10
2023-03-10T04:56:18.359Z,10.10
2023-03-10T04:58:46.411Z,10.10
2023-03-10T05:01:16.595Z,10.10
2023-03-10T05:03:50.560Z,10.10
2023-03-10T05:06:22.142Z,10.10
2023-03-10T05:09:00.864Z,10.10
2023-03-10T05:11:30.601Z,10.10
2023-03-10T05:13:58.784Z,10.10
2023-03-10T05:16:26.964Z,10.10
2023-03-10T05:18:56.555Z,10.00
2023-03-10T05:21:28.149Z,9.90
2023-03-10T05:23:57.977Z,10.00
2023-03-10T05:26:27.193Z,10.00
2023-03-10T05:28:55.707Z,10.00
2023-03-10T05:31:32.357Z,10.00
2023-03-10T05:34:07.543Z,10.00
2023-03-10T05:36:36.294Z,10.00
2023-03-10T05:39:07.088Z,10.00
2023-03-10T05:41:40.011Z,10.00
2023-03-10T05:44:09.102Z,9.90
2023-03-10T05:46:38.208Z,9.90
2023-03-10T05:49:07.670Z,9.90
2023-03-10T05:51:36.348Z,10.00
2023-03-10T05:54:06.235Z,10.00
2023-03-10T05:56:34.520Z,10.00
2023-03-10T05:59:06.796Z,10.00
2023-03-10T06:01:37.295Z,10.00
2023-03-10T06:04:06.833Z,10.00
2023-03-10T06:06:35.194Z,10.00
2023-03-10T06:09:03.752Z,10.00
2023-03-10T06:11:31.765Z,10.00
2023-03-10T06:14:00.110Z,10.00
2023-03-10T06:16:28.225Z,10.00
2023-03-10T06:18:56.687Z,10.00
2023-03-10T06:21:26.154Z,10.00
2023-03-10T06:23:54.175Z,10.00
2023-03-10T06:26:22.805Z,9.90
2023-03-10T06:28:50.948Z,10.00
2023-03-10T06:31:20.951Z,10.00
2023-03-10T06:33:49.318Z,10.00
2023-03-10T06:36:17.840Z,10.00
2023-03-10T06:38:47.521Z,9.90
2023-03-10T06:41:16.384Z,9.90
2023-03-10T06:43:44.437Z,9.90
2023-03-10T06:46:13.478Z,10.00
2023-03-10T06:48:42.640Z,10.00
2023-03-10T06:51:12.165Z,10.00
2023-03-10T06:53:40.306Z,10.00
2023-03-10T06:56:12.792Z,10.00
2023-03-10T06:58:41.062Z,10.00
2023-03-10T07:01:09.833Z,9.90
2023-03-10T07:03:38.008Z,10.00
2023-03-10T07:06:06.899Z,9.90
2023-03-10T07:08:34.959Z,10.00
2023-03-10T07:11:02.962Z,10.00
2023-03-10T07:13:32.360Z,10.00
2023-03-10T07:16:00.350Z,10.00
2023-03-10T07:18:29.602Z,10.00
2023-03-10T07:20:58.205Z,10.00
2023-03-10T07:23:26.831Z,10.00
2023-03-10T07:25:56.982Z,10.10
2023-03-10T07:28:25.672Z,10.00
2023-03-10T07:30:57.655Z,10.00
2023-03-10T07:33:25.727Z,10.00
2023-03-10T07:35:53.840Z,10.10
2023-03-10T07:38:21.856Z,10.10
2023-03-10T07:40:50.049Z,10.10
2023-03-10T07:43:18.077Z,10.10
2023-03-10T07:45:46.508Z,10.10
2023-03-10T07:48:15.923Z,10.10
2023-03-10T07:50:44.021Z,10.10
2023-03-10T07:53:12.039Z,10.00
2023-03-10T07:55:40.074Z,10.00
2023-03-10T07:58:08.078Z,10.00
2023-03-10T08:00:36.102Z,10.00
2023-03-10T08:03:04.220Z,10.00
2023-03-10T08:05:33.576Z,10.10
2023-03-10T08:08:01.858Z,10.10
2023-03-10T08:10:29.855Z,10.10
2023-03-10T08:12:57.879Z,10.10
2023-03-10T08:15:26.559Z,10.10
2023-03-10T08:17:54.809Z,10.10
2023-03-10T08:20:22.891Z,10.20
2023-03-10T08:22:53.681Z,10.20
2023-03-10T08:25:21.719Z,10.20
2023-03-10T08:27:50.948Z,10.20
2023-03-10T08:30:19.347Z,10.30
2023-03-10T08:32:47.459Z,10.30
2023-03-10T08:35:16.803Z,10.30
2023-03-10T08:37:44.911Z,10.30
2023-03-10T08:40:16.074Z,10.30
2023-03-10T08:42:46.951Z,10.30
2023-03-10T08:45:16.440Z,10.30
2023-03-10T08:47:44.535Z,10.30
2023-03-10T08:50:13.634Z,10.30
2023-03-10T08:52:42.070Z,10.30
2023-03-10T08:55:11.509Z,10.30
2023-03-10T08:57:40.884Z,10.30
2023-03-10T09:00:12.392Z,10.30
2023-03-10T09:02:40.719Z,10.30
2023-03-10T09:05:10.421Z,10.30
2023-03-10T09:07:38.460Z,10.30
2023-03-10T09:10:07.191Z,10.30
2023-03-10T09:12:37.829Z,10.40
2023-03-10T09:15:09.878Z,10.40
2023-03-10T09:17:40.596Z,10.40
2023-03-10T09:20:10.176Z,10.40
2023-03-10T09:22:38.510Z,10.40
2023-03-10T09:25:07.437Z,10.40
2023-03-10T09:27:35.439Z,10.50
2023-03-10T09:30:03.586Z,10.50
2023-03-10T09:32:33.394Z,10.50
2023-03-10T09:35:01.449Z,10.50
2023-03-10T09:37:29.691Z,10.60
2023-03-10T09:39:57.709Z,10.50
2023-03-10T09:42:41.289Z,10.50
2023-03-10T09:45:30.297Z,10.50
2023-03-10T09:48:14.337Z,10.50
2023-03-10T09:50:44.969Z,10.50
2023-03-10T09:53:26.873Z,10.50
2023-03-10T09:55:55.054Z,10.50
2023-03-10T09:58:32.009Z,10.50
2023-03-10T10:01:01.044Z,10.60
2023-03-10T10:03:46.381Z,10.60
2023-03-10T10:06:25.205Z,10.50
2023-03-10T10:09:04.131Z,10.50
2023-03-10T10:11:33.608Z,10.60
2023-03-10T10:14:26.234Z,10.50
2023-03-10T10:17:05.134Z,10.60
2023-03-10T10:19:36.984Z,10.60
2023-03-10T10:22:15.830Z,10.60
2023-03-10T10:24:58.989Z,10.60
2023-03-10T10:27:27.020Z,10.60
2023-03-10T10:29:55.071Z,10.60
2023-03-10T10:32:23.157Z,10.60
2023-03-10T10:34:52.777Z,10.60
2023-03-10T10:37:29.437Z,10.60
2023-03-10T10:39:59.200Z,10.60
2023-03-10T10:42:29.287Z,10.50
2023-03-10T10:44:59.053Z,10.60
2023-03-10T10:47:32.531Z,10.60
2023-03-10T10:50:21.249Z,10.60
2023-03-10T10:52:52.908Z,10.70
2023-03-10T10:55:28.129Z,10.70
2023-03-10T10:58:01.284Z,10.80
2023-03-10T11:00:32.018Z,10.80
2023-03-10T11:03:00.697Z,10.80
2023-03-10T11:05:37.520Z,10.90
2023-03-10T11:08:19.758Z,10.90
2023-03-10T11:10:55.863Z,11.00
2023-03-10T11:13:29.805Z,11.00
2023-03-10T11:16:03.230Z,11.10
2023-03-10T11:18:37.478Z,11.20
2023-03-10T11:21:14.517Z,11.10
2023-03-10T11:23:47.025Z,11.00
2023-03-10T11:26:23.425Z,11.10
2023-03-10T11:28:57.787Z,11.10
2023-03-10T11:31:38.358Z,11.10
2023-03-10T11:34:18.526Z,11.10
2023-03-10T11:36:57.137Z,11.10
2023-03-10T11:39:34.982Z,11.10
2023-03-10T11:42:09.523Z,11.00
2023-03-10T11:44:42.991Z,11.00
2023-03-10T11:47:19.823Z,11.00
2023-03-10T11:49:54.663Z,11.00
2023-03-10T11:52:25.862Z,11.00
2023-03-10T11:55:01.318Z,11.00
2023-03-10T11:57:34.261Z,11.00
2023-03-10T12:00:07.850Z,11.00
2023-03-10T12:02:46.047Z,11.00
2023-03-10T12:05:21.101Z,11.00
2023-03-10T12:07:53.263Z,11.00
2023-03-10T12:10:23.022Z,11.00
2023-03-10T12:12:53.545Z,11.00
2023-03-10T12:15:26.192Z,11.00
2023-03-10T12:17:55.331Z,10.90
2023-03-10T12:20:29.656Z,11.00
2023-03-10T12:23:00.473Z,11.00
2023-03-10T12:25:48.291Z,10.90
2023-03-10T12:28:27.573Z,10.90
2023-03-10T12:30:57.748Z,10.90
2023-03-10T12:33:46.161Z,10.90
2023-03-10T12:36:17.709Z,10.90
2023-03-10T12:38:50.259Z,10.90
2023-03-10T12:41:49.564Z,10.90
2023-03-10T12:44:51.031Z,10.90
2023-03-10T12:47:26.911Z,10.90
2023-03-10T12:50:02.555Z,10.90
2023-03-10T12:52:39.803Z,10.90
2023-03-10T12:55:21.040Z,10.80
2023-03-10T12:57:57.338Z,10.90
2023-03-10T13:00:31.821Z,10.90
2023-03-10T13:03:04.151Z,10.90
2023-03-10T13:05:35.290Z,10.90
2023-03-10T13:08:12.686Z,10.90
2023-03-10T13:10:43.433Z,10.90
2023-03-10T13:13:19.046Z,10.90
2023-03-10T13:15:59.578Z,10.90
2023-03-10T13:18:28.411Z,10.90
2023-03-10T13:20:56.548Z,10.90
2023-03-10T13:23:27.664Z,10.80
2023-03-10T13:26:00.052Z,10.80
2023-03-10T13:28:30.676Z,10.80
2023-03-10T13:31:19.370Z,10.80
2023-03-10T13:33:53.752Z,10.70
2023-03-10T13:36:34.263Z,10.70
2023-03-10T13:39:04.666Z,10.80
2023-03-10T13:41:37.357Z,10.70
2023-03-10T13:44:05.584Z,10.70
2023-03-10T13:46:34.982Z,10.70
2023-03-10T13:49:06.972Z,10.70
2023-03-10T13:51:37.270Z,10.60
2023-03-10T13:54:21.293Z,10.70
2023-03-10T13:56:53.151Z,10.70
2023-03-10T13:59:24.784Z,10.70
2023-03-10T14:01:56.283Z,10.70
2023-03-10T14:04:48.368Z,10.60
2023-03-10T14:07:19.292Z,10.60
2023-03-10T14:09:49.126Z,10.50
2023-03-10T14:12:36.582Z,10.50
2023-03-10T14:15:12.648Z,10.50
2023-03-10T14:17:41.713Z,10.60
2023-03-10T14:20:11.156Z,10.60
2023-03-10T14:22:41.393Z,10.60
2023-03-10T14:25:13.476Z,10.60
2023-03-10T14:27:45.401Z,10.60
2023-03-10T14:30:24.220Z,10.50
2023-03-10T14:32:53.189Z,10.50
2023-03-10T14:35:23.048Z,10.50
2023-03-10T14:37:52.401Z,10.50
2023-03-10T14:40:22.410Z,10.40
2023-03-10T14:42:53.805Z,10.40
2023-03-10T14:45:28.727Z,10.50
2023-03-10T14:47:58.826Z,10.40
2023-03-10T14:50:28.104Z,10.50
2023-03-10T14:52:56.627Z,10.40
2023-03-10T14:55:25.192Z,10.40
2023-03-10T14:58:01.248Z,10.50
2023-03-10T15:00:29.578Z,10.50
2023-03-10T15:02:57.872Z,10.50
2023-03-10T15:05:41.347Z,10.60
2023-03-10T15:08:15.649Z,10.60
2023-03-10T15:10:47.941Z,10.60
2023-03-10T15:13:18.706Z,10.60
2023-03-10T15:15:48.346Z,10.70
2023-03-10T15:18:18.158Z,10.70
2023-03-10T15:20:46.669Z,10.70
2023-03-10T15:23:18.034Z,10.70
2023-03-10T15:25:46.926Z,10.60
2023-03-10T15:28:16.829Z,10.60
2023-03-10T15:30:45.173Z,10.60
2023-03-10T15:33:13.471Z,10.70
2023-03-10T15:35:42.186Z,10.60
2023-03-10T15:38:13.636Z,10.50
2023-03-10T15:40:42.214Z,10.50
2023-03-10T15:43:10.434Z,10.50
2023-03-10T15:45:42.942Z,10.50
2023-03-10T15:48:11.578Z,10.60
2023-03-10T15:50:42.949Z,10.60
2023-03-10T15:53:11.986Z,10.60
2023-03-10T15:55:41.876Z,10.50
2023-03-10T15:58:10.432Z,10.50
2023-03-10T16:00:39.988Z,10.50
2023-03-10T16:03:08.302Z,10.40
2023-03-10T16:05:37.639Z,10.40
2023-03-10T16:08:06.631Z,10.30
2023-03-10T16:10:35.760Z,10.30
2023-03-10T16:13:04.275Z,10.30
2023-03-10T16:15:32.652Z,10.30
2023-03-10T16:18:02.035Z,10.30
2023-03-10T16:20:30.049Z,10.30
2023-03-10T16:22:58.190Z,10.30
2023-03-10T16:25:26.215Z,10.20
2023-03-10T16:27:54.235Z,10.20
2023-03-10T16:30:22.627Z,10.30
2023-03-10T16:32:51.338Z,10.30
2023-03-10T16:35:20.956Z,10.20
2023-03-10T16:37:49.010Z,10.20
2023-03-10T16:40:17.531Z,10.10
2023-03-10T16:42:46.458Z,10.20
2023-03-10T16:45:14.822Z,10.20
2023-03-10T16:47:43.969Z,10.20
2023-03-10T16:50:14.178Z,10.20
2023-03-10T16:52:44.122Z,10.20
2023-03-10T16:55:17.292Z,10.20
2023-03-10T16:57:46.278Z,10.30
2023-03-10T17:00:15.808Z,10.10
2023-03-10T17:02:44.104Z,10.10
2023-03-10T17:05:15.069Z,10.00
2023-03-10T17:07:54.969Z,10.10
2023-03-10T17:10:23.407Z,10.10
2023-03-10T17:12:51.397Z,10.20
2023-03-10T17:15:19.564Z,10.10
2023-03-10T17:17:47.599Z,10.00
2023-03-10T17:20:17.191Z,10.00
2023-03-10T17:22:46.604Z,10.10
2023-03-10T17:25:15.556Z,10.10
2023-03-10T17:27:43.829Z,10.10
2023-03-10T17:30:15.242Z,10.00
2023-03-10T17:32:43.291Z,10.00
2023-03-10T17:35:11.541Z,10.00
2023-03-10T17:37:40.663Z,9.90
2023-03-10T17:40:15.144Z,9.90
2023-03-10T17:42:43.194Z,10.00
2023-03-10T17:45:12.075Z,10.00
2023-03-10T17:47:41.054Z,10.00
2023-03-10T17:50:10.147Z,10.00
2023-03-10T17:52:38.158Z,9.90
2023-03-10T17:55:07.236Z,9.90
2023-03-10T17:57:37.120Z,9.80
2023-03-10T18:00:08.195Z,9.70
2023-03-10T18:02:40.361Z,9.80
2023-03-10T18:05:09.188Z,9.90
2023-03-10T18:07:37.163Z,9.80
2023-03-10T18:10:05.855Z,9.70
2023-03-10T18:12:33.856Z,9.70
2023-03-10T18:15:04.005Z,9.70
2023-03-10T18:17:32.432Z,9.70
2023-03-10T18:20:01.079Z,9.60
2023-03-10T18:22:29.085Z,9.50
2023-03-10T18:25:01.363Z,9.40
2023-03-10T18:27:29.512Z,9.20
2023-03-10T18:29:57.954Z,9.20
2023-03-10T18:32:27.626Z,9.40
2023-03-10T18:34:57.980Z,9.20
2023-03-10T18:37:26.598Z,9.30
2023-03-10T18:39:54.574Z,9.10
2023-03-10T18:42:23.237Z,9.20
2023-03-10T18:44:51.241Z,9.00
2023-03-10T18:47:19.689Z,9.00
2023-03-10T18:49:49.536Z,9.10
2023-03-10T18:52:17.560Z,9.10
2023-03-10T18:54:47.269Z,9.10
2023-03-10T18:57:15.517Z,8.70
2023-03-10T18:59:43.672Z,8.40
2023-03-10T19:02:14.509Z,8.20
2023-03-10T19:04:43.597Z,8.30
2023-03-10T19:07:14.669Z,8.20
2023-03-10T19:09:42.783Z,8.50
2023-03-10T19:12:11.114Z,8.80
2023-03-10T19:14:39.134Z,8.80
2023-03-10T19:17:07.117Z,8.60
2023-03-10T19:19:35.104Z,8.50
2023-03-10T19:22:03.108Z,8.70
2023-03-10T19:24:32.439Z,8.50
2023-03-10T19:27:03.963Z,8.50
2023-03-10T19:29:32.253Z,8.80
2023-03-10T19:32:00.306Z,9.00
2023-03-10T19:34:28.295Z,8.90
2023-03-10T19:36:56.307Z,8.60
2023-03-10T19:39:24.350Z,8.40
2023-03-10T19:41:53.691Z,8.40
2023-03-10T19:44:22.218Z,8.20
2023-03-10T19:46:50.841Z,8.50
2023-03-10T19:49:19.007Z,8.50
2023-03-10T19:51:47.073Z,8.20
2023-03-10T19:54:15.102Z,8.20
2023-03-10T19:56:43.111Z,8.40
2023-03-10T19:59:12.457Z,8.80
2023-03-10T20:01:42.063Z,8.70
2023-03-10T20:04:11.394Z,8.60
2023-03-10T20:06:39.430Z,8.50
2023-03-10T20:09:10.341Z,8.40
2023-03-10T20:11:38.719Z,8.50
2023-03-10T20:14:07.130Z,8.20
2023-03-10T20:16:37.271Z,8.40
2023-03-10T20:19:05.360Z,8.40
2023-03-10T20:21:33.393Z,8.10
2023-03-10T20:24:01.412Z,8.20
2023-03-10T20:26:29.423Z,8.10
2023-03-10T20:28:57.410Z,8.10
2023-03-10T20:31:26.160Z,8.10
2023-03-10T20:33:56.141Z,8.20
2023-03-10T20:36:24.127Z,8.30
2023-03-10T20:38:52.149Z,8.20
2023-03-10T20:41:21.065Z,8.20
2023-03-10T20:43:49.325Z,8.00
2023-03-10T20:46:19.656Z,7.90
2023-03-10T20:48:49.825Z,8.10
2023-03-10T20:51:19.547Z,8.20
2023-03-10T20:53:47.605Z,8.10
2023-03-10T20:56:16.533Z,7.80
2023-03-10T20:58:44.779Z,7.80
2023-03-10T21:01:16.865Z,7.70
2023-03-10T21:03:44.988Z,7.90
2023-03-10T21:06:13.044Z,8.00
2023-03-10T21:08:42.403Z,8.00
2023-03-10T21:11:10.426Z,7.80
2023-03-10T21:13:38.459Z,7.80
2023-03-10T21:16:06.568Z,7.50
2023-03-10T21:18:34.676Z,7.40
2023-03-10T21:21:06.953Z,7.60
2023-03-10T21:23:43.605Z,7.50
2023-03-10T21:26:13.419Z,7.40
2023-03-10T21:28:42.084Z,7.40
2023-03-10T21:31:10.716Z,7.30
2023-03-10T21:33:41.565Z,7.30
2023-03-10T21:36:12.451Z,7.40
2023-03-10T21:38:40.994Z,7.60
2023-03-10T21:41:10.483Z,7.40
2023-03-10T21:43:38.504Z,7.40
2023-03-10T21:46:06.638Z,7.60
2023-03-10T21:48:34.932Z,7.50
2023-03-10T21:51:03.060Z,7.30
2023-03-10T21:53:31.339Z,7.40
2023-03-10T21:56:00.593Z,7.60
2023-03-10T21:58:29.978Z,7.60
2023-03-10T22:00:58.765Z,7.50
2023-03-10T22:03:27.352Z,7.40
2023-03-10T22:05:55.684Z,7.50
2023-03-10T22:08:23.730Z,7.30
2023-03-10T22:10:51.709Z,7.30
2023-03-10T22:13:19.811Z,7.30
2023-03-10T22:15:49.262Z,7.30
2023-03-10T22:18:17.326Z,7.20
2023-03-10T22:20:45.401Z,7.40
2023-03-10T22:23:13.714Z,7.40
2023-03-10T22:25:42.138Z,7.30
2023-03-10T22:28:10.494Z,7.10
2023-03-10T22:30:40.094Z,7.30
2023-03-10T22:33:10.143Z,7.50
2023-03-10T22:35:38.902Z,7.30
2023-03-10T22:38:07.549Z,7.20
2023-03-10T22:40:35.608Z,7.30
2023-03-10T22:43:03.632Z,7.30
2023-03-10T22:45:33.401Z,7.30
2023-03-10T22:48:03.543Z,7.10
2023-03-10T22:50:35.426Z,7.00
2023-03-10T22:53:05.968Z,7.10
2023-03-10T22:55:35.924Z,7.20
2023-03-10T22:58:04.989Z,7.20
2023-03-10T23:00:34.082Z,7.00
2023-03-10T23:03:02.170Z,7.10
2023-03-10T23:05:31.926Z,7.10
2023-03-10T23:07:59.989Z,7.20
2023-03-10T23:10:30.542Z,7.10
2023-03-10T23:13:01.238Z,6.90
2023-03-10T23:15:31.877Z,7.00
2023-03-10T23:18:00.257Z,6.90
2023-03-10T23:20:31.317Z,6.80
2023-03-10T23:23:02.200Z,6.70
2023-03-10T23:25:32.668Z,6.70
2023-03-10T23:28:00.853Z,6.80
2023-03-10T23:30:29.589Z,6.80
2023-03-10T23:32:58.221Z,7.00
2023-03-10T23:35:29.138Z,6.90
2023-03-10T23:37:57.426Z,7.20
2023-03-10T23:40:28.394Z,7.20
2023-03-10T23:42:57.523Z,6.80
2023-03-10T23:45:27.479Z,6.80
2023-03-10T23:47:56.766Z,6.90
2023-03-10T23:50:27.692Z,6.80
2023-03-10T23:52:56.382Z,6.90
2023-03-10T23:55:28.388Z,6.70
2023-03-10T23:57:56.460Z,6.70
